sensor_id;sensor_type;location;lat;lon;timestamp;P1;durP1;ratioP1;P2;durP2;ratioP2
10904;SDS011;5505;51.450;9.254;2023-03-01T00:01:47;8.73;;;6.40;;
10904;SDS011;5505;51.450;9.254;2023-03-01T00:04:34;8.23;;;6.90;;
10904;SDS011;5505;51.450;9.254;2023-03-01T00:07:21;8.83;;;7.03;;
10904;SDS011;5505;51.450;9.254;2023-03-01T00:10:09;8.87;;;7.30;;
10904;SDS011;5505;51.450;9.254;2023-03-01T00:12:56;8.20;;;6.10;;
10904;SDS011;5505;51.450;9.254;2023-03-01T00:15:43;9.07;;;6.80;;
10904;SDS011;5505;51.450;9.254;2023-03-01T00:18:32;9.53;;;7.70;;
10904;SDS011;5505;51.450;9.254;2023-03-01T00:21:19;7.63;;;6.77;;
10904;SDS011;5505;51.450;9.254;2023-03-01T00:24:07;7.83;;;6.70;;
10904;SDS011;5505;51.450;9.254;2023-03-01T00:26:55;8.80;;;6.60;;
10904;SDS011;5505;51.450;9.254;2023-03-01T00:29:42;8.97;;;6.60;;
10904;SDS011;5505;51.450;9.254;2023-03-01T00:32:29;7.77;;;6.77;;
10904;SDS011;5505;51.450;9.254;2023-03-01T00:35:18;8.70;;;6.80;;
10904;SDS011;5505;51.450;9.254;2023-03-01T00:38:05;8.53;;;7.20;;
10904;SDS011;5505;51.450;9.254;2023-03-01T00:40:52;8.10;;;6.90;;
10904;SDS011;5505;51.450;9.254;2023-03-01T00:43:39;9.87;;;7.33;;
10904;SDS011;5505;51.450;9.254;2023-03-01T00:46:26;9.13;;;7.23;;
10904;SDS011;5505;51.450;9.254;2023-03-01T00:49:15;8.30;;;6.40;;
10904;SDS011;5505;51.450;9.254;2023-03-01T00:52:03;7.60;;;6.80;;
10904;SDS011;5505;51.450;9.254;2023-03-01T00:54:52;7.90;;;6.50;;
10904;SDS011;5505;51.450;9.254;2023-03-01T00:57:40;8.60;;;7.20;;
10904;SDS011;5505;51.450;9.254;2023-03-01T01:00:27;9.67;;;6.90;;
10904;SDS011;5505;51.450;9.254;2023-03-01T01:03:14;9.80;;;7.17;;
10904;SDS011;5505;51.450;9.254;2023-03-01T01:06:01;8.30;;;6.27;;
10904;SDS011;5505;51.450;9.254;2023-03-01T01:08:55;7.23;;;6.10;;
10904;SDS011;5505;51.450;9.254;2023-03-01T01:11:43;11.33;;;7.10;;
10904;SDS011;5505;51.450;9.254;2023-03-01T01:14:30;10.40;;;6.73;;
10904;SDS011;5505;51.450;9.254;2023-03-01T01:17:17;9.63;;;6.93;;
10904;SDS011;5505;51.450;9.254;2023-03-01T01:20:05;10.73;;;8.30;;
10904;SDS011;5505;51.450;9.254;2023-03-01T01:22:52;15.43;;;9.23;;
10904;SDS011;5505;51.450;9.254;2023-03-01T01:25:40;9.60;;;7.80;;
10904;SDS011;5505;51.450;9.254;2023-03-01T01:28:27;9.57;;;6.97;;
10904;SDS011;5505;51.450;9.254;2023-03-01T01:31:15;8.40;;;6.67;;
10904;SDS011;5505;51.450;9.254;2023-03-01T01:34:03;8.83;;;6.80;;
10904;SDS011;5505;51.450;9.254;2023-03-01T01:36:51;8.40;;;6.93;;
10904;SDS011;5505;51.450;9.254;2023-03-01T01:39:38;8.30;;;6.33;;
10904;SDS011;5505;51.450;9.254;2023-03-01T01:42:27;10.60;;;7.27;;
10904;SDS011;5505;51.450;9.254;2023-03-01T01:48:21;8.07;;;6.90;;
10904;SDS011;5505;51.450;9.254;2023-03-01T01:51:11;10.70;;;7.33;;
10904;SDS011;5505;51.450;9.254;2023-03-01T01:53:59;7.37;;;6.17;;
10904;SDS011;5505;51.450;9.254;2023-03-01T01:56:47;9.80;;;7.23;;
10904;SDS011;5505;51.450;9.254;2023-03-01T01:59:37;10.73;;;7.43;;
10904;SDS011;5505;51.450;9.254;2023-03-01T02:02:25;11.13;;;7.50;;
10904;SDS011;5505;51.450;9.254;2023-03-01T02:05:14;9.73;;;6.97;;
10904;SDS011;5505;51.450;9.254;2023-03-01T02:08:03;11.27;;;7.53;;
10904;SDS011;5505;51.450;9.254;2023-03-01T02:10:50;10.83;;;8.00;;
10904;SDS011;5505;51.450;9.254;2023-03-01T02:13:38;9.80;;;7.40;;
10904;SDS011;5505;51.450;9.254;2023-03-01T02:16:26;44.67;;;19.23;;
10904;SDS011;5505;51.450;9.254;2023-03-01T02:19:24;14.10;;;8.60;;
10904;SDS011;5505;51.450;9.254;2023-03-01T02:22:16;11.77;;;8.37;;
10904;SDS011;5505;51.450;9.254;2023-03-01T02:25:07;26.37;;;13.47;;
10904;SDS011;5505;51.450;9.254;2023-03-01T02:27:58;16.03;;;10.67;;
10904;SDS011;5505;51.450;9.254;2023-03-01T02:30:51;12.87;;;8.17;;
10904;SDS011;5505;51.450;9.254;2023-03-01T02:33:52;11.53;;;8.27;;
10904;SDS011;5505;51.450;9.254;2023-03-01T02:36:40;11.10;;;7.13;;
10904;SDS011;5505;51.450;9.254;2023-03-01T02:39:28;13.33;;;8.03;;
10904;SDS011;5505;51.450;9.254;2023-03-01T02:42:18;9.80;;;6.73;;
10904;SDS011;5505;51.450;9.254;2023-03-01T02:45:08;12.97;;;7.90;;
10904;SDS011;5505;51.450;9.254;2023-03-01T02:47:57;12.77;;;7.80;;
10904;SDS011;5505;51.450;9.254;2023-03-01T02:50:51;14.07;;;9.33;;
10904;SDS011;5505;51.450;9.254;2023-03-01T02:53:41;14.17;;;8.20;;
10904;SDS011;5505;51.450;9.254;2023-03-01T02:56:33;14.87;;;8.90;;
10904;SDS011;5505;51.450;9.254;2023-03-01T02:59:21;13.33;;;8.33;;
10904;SDS011;5505;51.450;9.254;2023-03-01T03:02:18;11.97;;;7.87;;
10904;SDS011;5505;51.450;9.254;2023-03-01T03:05:22;10.50;;;7.60;;
10904;SDS011;5505;51.450;9.254;2023-03-01T03:08:10;11.23;;;7.73;;
10904;SDS011;5505;51.450;9.254;2023-03-01T03:10:58;12.20;;;7.37;;
10904;SDS011;5505;51.450;9.254;2023-03-01T03:13:45;10.37;;;7.37;;
10904;SDS011;5505;51.450;9.254;2023-03-01T03:16:33;10.27;;;7.33;;
10904;SDS011;5505;51.450;9.254;2023-03-01T03:19:20;11.37;;;6.83;;
10904;SDS011;5505;51.450;9.254;2023-03-01T03:22:08;10.47;;;7.83;;
10904;SDS011;5505;51.450;9.254;2023-03-01T03:24:55;14.20;;;7.57;;
10904;SDS011;5505;51.450;9.254;2023-03-01T03:27:43;11.77;;;8.47;;
10904;SDS011;5505;51.450;9.254;2023-03-01T03:30:31;10.87;;;7.50;;
10904;SDS011;5505;51.450;9.254;2023-03-01T03:33:18;15.30;;;8.40;;
10904;SDS011;5505;51.450;9.254;2023-03-01T03:36:05;12.17;;;7.20;;
10904;SDS011;5505;51.450;9.254;2023-03-01T03:38:59;9.43;;;7.70;;
10904;SDS011;5505;51.450;9.254;2023-03-01T03:41:46;9.00;;;6.80;;
10904;SDS011;5505;51.450;9.254;2023-03-01T03:44:33;10.47;;;7.47;;
10904;SDS011;5505;51.450;9.254;2023-03-01T03:47:21;12.53;;;7.60;;
10904;SDS011;5505;51.450;9.254;2023-03-01T03:50:09;11.33;;;7.50;;
10904;SDS011;5505;51.450;9.254;2023-03-01T03:52:56;8.80;;;7.03;;
10904;SDS011;5505;51.450;9.254;2023-03-01T03:55:44;9.83;;;7.13;;
10904;SDS011;5505;51.450;9.254;2023-03-01T03:58:34;9.40;;;6.83;;
10904;SDS011;5505;51.450;9.254;2023-03-01T04:01:28;9.77;;;7.20;;
10904;SDS011;5505;51.450;9.254;2023-03-01T04:04:15;11.40;;;6.97;;
10904;SDS011;5505;51.450;9.254;2023-03-01T04:07:03;8.93;;;7.13;;
10904;SDS011;5505;51.450;9.254;2023-03-01T04:09:51;8.33;;;6.57;;
10904;SDS011;5505;51.450;9.254;2023-03-01T04:12:39;10.13;;;7.93;;
10904;SDS011;5505;51.450;9.254;2023-03-01T04:15:28;9.07;;;6.90;;
10904;SDS011;5505;51.450;9.254;2023-03-01T04:18:15;9.63;;;7.13;;
10904;SDS011;5505;51.450;9.254;2023-03-01T04:21:03;9.20;;;6.93;;
10904;SDS011;5505;51.450;9.254;2023-03-01T04:23:50;9.57;;;7.10;;
10904;SDS011;5505;51.450;9.254;2023-03-01T04:26:37;9.10;;;6.97;;
10904;SDS011;5505;51.450;9.254;2023-03-01T04:29:26;10.63;;;7.07;;
10904;SDS011;5505;51.450;9.254;2023-03-01T04:32:13;9.10;;;6.87;;
10904;SDS011;5505;51.450;9.254;2023-03-01T04:35:01;12.47;;;7.17;;
10904;SDS011;5505;51.450;9.254;2023-03-01T04:37:49;10.47;;;7.03;;
10904;SDS011;5505;51.450;9.254;2023-03-01T04:40:36;10.17;;;6.90;;
10904;SDS011;5505;51.450;9.254;2023-03-01T04:43:23;8.87;;;6.83;;
10904;SDS011;5505;51.450;9.254;2023-03-01T04:46:12;9.50;;;7.50;;
10904;SDS011;5505;51.450;9.254;2023-03-01T04:48:59;10.47;;;7.60;;
10904;SDS011;5505;51.450;9.254;2023-03-01T04:51:46;9.63;;;7.63;;
10904;SDS011;5505;51.450;9.254;2023-03-01T04:54:34;10.70;;;7.63;;
10904;SDS011;5505;51.450;9.254;2023-03-01T04:57:21;8.70;;;6.80;;
10904;SDS011;5505;51.450;9.254;2023-03-01T05:00:09;9.27;;;6.87;;
10904;SDS011;5505;51.450;9.254;2023-03-01T05:03:07;10.37;;;7.37;;
10904;SDS011;5505;51.450;9.254;2023-03-01T05:05:54;14.00;;;9.50;;
10904;SDS011;5505;51.450;9.254;2023-03-01T05:08:45;8.90;;;7.10;;
10904;SDS011;5505;51.450;9.254;2023-03-01T05:11:33;10.77;;;7.10;;
10904;SDS011;5505;51.450;9.254;2023-03-01T05:14:20;8.90;;;7.17;;
10904;SDS011;5505;51.450;9.254;2023-03-01T05:17:07;8.60;;;7.17;;
10904;SDS011;5505;51.450;9.254;2023-03-01T05:19:56;7.33;;;5.90;;
10904;SDS011;5505;51.450;9.254;2023-03-01T05:22:44;14.17;;;7.17;;
10904;SDS011;5505;51.450;9.254;2023-03-01T05:25:31;10.57;;;6.93;;
10904;SDS011;5505;51.450;9.254;2023-03-01T05:28:19;8.93;;;7.07;;
10904;SDS011;5505;51.450;9.254;2023-03-01T05:31:06;9.80;;;7.43;;
10904;SDS011;5505;51.450;9.254;2023-03-01T05:33:54;10.20;;;7.70;;
10904;SDS011;5505;51.450;9.254;2023-03-01T05:36:42;10.30;;;6.90;;
10904;SDS011;5505;51.450;9.254;2023-03-01T05:39:29;10.17;;;7.70;;
10904;SDS011;5505;51.450;9.254;2023-03-01T05:42:17;10.93;;;7.73;;
10904;SDS011;5505;51.450;9.254;2023-03-01T05:45:05;10.43;;;6.93;;
10904;SDS011;5505;51.450;9.254;2023-03-01T05:47:54;9.60;;;7.40;;
10904;SDS011;5505;51.450;9.254;2023-03-01T05:50:42;9.70;;;7.10;;
10904;SDS011;5505;51.450;9.254;2023-03-01T05:53:32;8.73;;;6.70;;
10904;SDS011;5505;51.450;9.254;2023-03-01T05:56:19;13.20;;;7.30;;
10904;SDS011;5505;51.450;9.254;2023-03-01T05:59:07;9.40;;;6.93;;
10904;SDS011;5505;51.450;9.254;2023-03-01T06:01:54;11.03;;;7.10;;
10904;SDS011;5505;51.450;9.254;2023-03-01T06:04:41;8.30;;;6.30;;
10904;SDS011;5505;51.450;9.254;2023-03-01T06:07:28;8.97;;;6.77;;
10904;SDS011;5505;51.450;9.254;2023-03-01T06:10:16;11.53;;;6.73;;
10904;SDS011;5505;51.450;9.254;2023-03-01T06:13:05;10.63;;;7.20;;
10904;SDS011;5505;51.450;9.254;2023-03-01T06:15:51;9.80;;;7.00;;
10904;SDS011;5505;51.450;9.254;2023-03-01T06:18:38;8.60;;;6.50;;
10904;SDS011;5505;51.450;9.254;2023-03-01T06:21:25;9.17;;;6.73;;
10904;SDS011;5505;51.450;9.254;2023-03-01T06:24:12;9.40;;;6.73;;
10904;SDS011;5505;51.450;9.254;2023-03-01T06:27:00;9.37;;;6.93;;
10904;SDS011;5505;51.450;9.254;2023-03-01T06:29:48;10.53;;;7.63;;
10904;SDS011;5505;51.450;9.254;2023-03-01T06:32:38;12.17;;;6.70;;
10904;SDS011;5505;51.450;9.254;2023-03-01T06:35:27;13.97;;;7.77;;
10904;SDS011;5505;51.450;9.254;2023-03-01T06:38:15;12.57;;;8.17;;
10904;SDS011;5505;51.450;9.254;2023-03-01T06:41:04;12.43;;;9.47;;
10904;SDS011;5505;51.450;9.254;2023-03-01T06:43:53;13.93;;;9.40;;
10904;SDS011;5505;51.450;9.254;2023-03-01T06:46:40;15.07;;;9.57;;
10904;SDS011;5505;51.450;9.254;2023-03-01T06:49:27;14.03;;;9.27;;
10904;SDS011;5505;51.450;9.254;2023-03-01T06:52:15;19.40;;;12.50;;
10904;SDS011;5505;51.450;9.254;2023-03-01T06:55:02;29.37;;;19.43;;
10904;SDS011;5505;51.450;9.254;2023-03-01T06:57:53;26.57;;;17.83;;
10904;SDS011;5505;51.450;9.254;2023-03-01T07:00:44;24.73;;;16.27;;
10904;SDS011;5505;51.450;9.254;2023-03-01T07:03:31;25.07;;;15.17;;
10904;SDS011;5505;51.450;9.254;2023-03-01T07:06:18;19.70;;;13.03;;
10904;SDS011;5505;51.450;9.254;2023-03-01T07:09:06;18.43;;;11.53;;
10904;SDS011;5505;51.450;9.254;2023-03-01T07:11:52;16.27;;;11.97;;
10904;SDS011;5505;51.450;9.254;2023-03-01T07:14:40;16.13;;;11.30;;
10904;SDS011;5505;51.450;9.254;2023-03-01T07:17:28;16.67;;;11.60;;
10904;SDS011;5505;51.450;9.254;2023-03-01T07:20:15;15.17;;;12.17;;
10904;SDS011;5505;51.450;9.254;2023-03-01T07:23:02;16.00;;;12.33;;
10904;SDS011;5505;51.450;9.254;2023-03-01T07:25:52;18.77;;;11.97;;
10904;SDS011;5505;51.450;9.254;2023-03-01T07:28:39;13.57;;;10.00;;
10904;SDS011;5505;51.450;9.254;2023-03-01T07:31:26;13.83;;;9.97;;
10904;SDS011;5505;51.450;9.254;2023-03-01T07:34:14;14.53;;;10.90;;
10904;SDS011;5505;51.450;9.254;2023-03-01T07:37:01;16.07;;;10.90;;
10904;SDS011;5505;51.450;9.254;2023-03-01T07:39:48;13.67;;;10.33;;
10904;SDS011;5505;51.450;9.254;2023-03-01T07:42:35;14.77;;;11.97;;
10904;SDS011;5505;51.450;9.254;2023-03-01T07:45:22;13.47;;;9.97;;
10904;SDS011;5505;51.450;9.254;2023-03-01T07:48:08;13.73;;;9.80;;
10904;SDS011;5505;51.450;9.254;2023-03-01T07:50:58;11.80;;;9.83;;
10904;SDS011;5505;51.450;9.254;2023-03-01T07:53:46;12.17;;;9.40;;
10904;SDS011;5505;51.450;9.254;2023-03-01T07:56:33;10.47;;;9.17;;
10904;SDS011;5505;51.450;9.254;2023-03-01T07:59:20;14.20;;;10.13;;
10904;SDS011;5505;51.450;9.254;2023-03-01T08:02:08;11.00;;;9.10;;
10904;SDS011;5505;51.450;9.254;2023-03-01T08:04:56;11.60;;;8.43;;
10904;SDS011;5505;51.450;9.254;2023-03-01T08:07:44;9.97;;;7.10;;
10904;SDS011;5505;51.450;9.254;2023-03-01T08:10:31;7.63;;;6.70;;
10904;SDS011;5505;51.450;9.254;2023-03-01T08:13:18;9.77;;;7.20;;
10904;SDS011;5505;51.450;9.254;2023-03-01T08:16:08;8.63;;;6.37;;
10904;SDS011;5505;51.450;9.254;2023-03-01T08:18:57;9.97;;;6.80;;
10904;SDS011;5505;51.450;9.254;2023-03-01T08:21:49;13.90;;;10.00;;
10904;SDS011;5505;51.450;9.254;2023-03-01T08:24:37;9.27;;;7.03;;
10904;SDS011;5505;51.450;9.254;2023-03-01T08:27:24;7.10;;;6.30;;
10904;SDS011;5505;51.450;9.254;2023-03-01T08:30:11;9.97;;;7.87;;
10904;SDS011;5505;51.450;9.254;2023-03-01T08:32:59;8.73;;;5.87;;
10904;SDS011;5505;51.450;9.254;2023-03-01T08:35:45;8.60;;;6.10;;
10904;SDS011;5505;51.450;9.254;2023-03-01T08:38:32;9.20;;;6.50;;
10904;SDS011;5505;51.450;9.254;2023-03-01T08:41:20;6.33;;;5.70;;
10904;SDS011;5505;51.450;9.254;2023-03-01T08:44:08;6.57;;;5.73;;
10904;SDS011;5505;51.450;9.254;2023-03-01T08:46:57;7.03;;;5.30;;
10904;SDS011;5505;51.450;9.254;2023-03-01T08:49:44;5.57;;;4.40;;
10904;SDS011;5505;51.450;9.254;2023-03-01T08:52:31;6.00;;;4.67;;
10904;SDS011;5505;51.450;9.254;2023-03-01T08:55:19;6.03;;;5.00;;
10904;SDS011;5505;51.450;9.254;2023-03-01T08:58:07;7.17;;;4.50;;
10904;SDS011;5505;51.450;9.254;2023-03-01T09:00:54;7.60;;;4.87;;
10904;SDS011;5505;51.450;9.254;2023-03-01T09:03:41;7.53;;;4.83;;
10904;SDS011;5505;51.450;9.254;2023-03-01T09:06:29;6.03;;;4.50;;
10904;SDS011;5505;51.450;9.254;2023-03-01T09:09:18;5.80;;;4.67;;
10904;SDS011;5505;51.450;9.254;2023-03-01T09:12:05;6.83;;;4.90;;
10904;SDS011;5505;51.450;9.254;2023-03-01T09:14:53;8.50;;;4.40;;
10904;SDS011;5505;51.450;9.254;2023-03-01T09:17:40;7.03;;;5.40;;
10904;SDS011;5505;51.450;9.254;2023-03-01T09:20:27;7.00;;;5.03;;
10904;SDS011;5505;51.450;9.254;2023-03-01T09:23:15;7.50;;;5.00;;
10904;SDS011;5505;51.450;9.254;2023-03-01T09:26:02;6.60;;;4.17;;
10904;SDS011;5505;51.450;9.254;2023-03-01T09:28:50;8.33;;;5.30;;
10904;SDS011;5505;51.450;9.254;2023-03-01T09:31:39;6.03;;;4.63;;
10904;SDS011;5505;51.450;9.254;2023-03-01T09:34:26;7.23;;;5.50;;
10904;SDS011;5505;51.450;9.254;2023-03-01T09:37:13;6.37;;;4.97;;
10904;SDS011;5505;51.450;9.254;2023-03-01T09:40:00;5.70;;;5.13;;
10904;SDS011;5505;51.450;9.254;2023-03-01T09:42:51;5.20;;;4.70;;
10904;SDS011;5505;51.450;9.254;2023-03-01T09:45:43;5.23;;;4.30;;
10904;SDS011;5505;51.450;9.254;2023-03-01T09:48:34;9.33;;;4.77;;
10904;SDS011;5505;51.450;9.254;2023-03-01T09:51:29;7.37;;;5.50;;
10904;SDS011;5505;51.450;9.254;2023-03-01T09:54:18;7.07;;;4.97;;
10904;SDS011;5505;51.450;9.254;2023-03-01T09:57:06;8.30;;;5.30;;
10904;SDS011;5505;51.450;9.254;2023-03-01T10:00:03;6.33;;;4.90;;
10904;SDS011;5505;51.450;9.254;2023-03-01T10:03:11;7.57;;;4.90;;
10904;SDS011;5505;51.450;9.254;2023-03-01T10:06:06;6.07;;;5.10;;
10904;SDS011;5505;51.450;9.254;2023-03-01T10:08:57;6.57;;;5.30;;
10904;SDS011;5505;51.450;9.254;2023-03-01T10:11:47;6.00;;;5.23;;
10904;SDS011;5505;51.450;9.254;2023-03-01T10:14:47;7.20;;;4.63;;
10904;SDS011;5505;51.450;9.254;2023-03-01T10:17:41;6.17;;;4.80;;
10904;SDS011;5505;51.450;9.254;2023-03-01T10:20:34;6.50;;;4.83;;
10904;SDS011;5505;51.450;9.254;2023-03-01T10:23:37;7.23;;;5.10;;
10904;SDS011;5505;51.450;9.254;2023-03-01T10:26:32;6.23;;;4.73;;
10904;SDS011;5505;51.450;9.254;2023-03-01T10:29:28;6.67;;;4.60;;
10904;SDS011;5505;51.450;9.254;2023-03-01T10:32:17;7.03;;;4.77;;
10904;SDS011;5505;51.450;9.254;2023-03-01T10:35:15;6.10;;;4.50;;
10904;SDS011;5505;51.450;9.254;2023-03-01T10:38:05;5.27;;;4.27;;
10904;SDS011;5505;51.450;9.254;2023-03-01T10:40:55;6.40;;;4.97;;
10904;SDS011;5505;51.450;9.254;2023-03-01T10:43:44;10.20;;;5.33;;
10904;SDS011;5505;51.450;9.254;2023-03-01T10:46:33;6.67;;;5.00;;
10904;SDS011;5505;51.450;9.254;2023-03-01T10:49:21;5.40;;;4.43;;
10904;SDS011;5505;51.450;9.254;2023-03-01T10:52:17;6.23;;;4.90;;
10904;SDS011;5505;51.450;9.254;2023-03-01T10:55:19;6.77;;;5.00;;
10904;SDS011;5505;51.450;9.254;2023-03-01T10:58:18;6.97;;;3.23;;
10904;SDS011;5505;51.450;9.254;2023-03-01T11:01:23;5.93;;;5.10;;
10904;SDS011;5505;51.450;9.254;2023-03-01T11:04:12;6.40;;;4.70;;
10904;SDS011;5505;51.450;9.254;2023-03-01T11:07:00;5.83;;;4.50;;
10904;SDS011;5505;51.450;9.254;2023-03-01T11:09:48;6.93;;;5.10;;
10904;SDS011;5505;51.450;9.254;2023-03-01T11:12:35;4.97;;;3.67;;
10904;SDS011;5505;51.450;9.254;2023-03-01T11:15:25;6.37;;;5.03;;
10904;SDS011;5505;51.450;9.254;2023-03-01T11:18:20;6.30;;;4.67;;
10904;SDS011;5505;51.450;9.254;2023-03-01T11:21:09;7.40;;;4.77;;
10904;SDS011;5505;51.450;9.254;2023-03-01T11:23:57;4.63;;;4.13;;
10904;SDS011;5505;51.450;9.254;2023-03-01T11:26:47;5.67;;;4.30;;
10904;SDS011;5505;51.450;9.254;2023-03-01T11:29:41;7.23;;;4.47;;
10904;SDS011;5505;51.450;9.254;2023-03-01T11:32:42;5.87;;;4.63;;
10904;SDS011;5505;51.450;9.254;2023-03-01T11:35:34;6.07;;;4.57;;
10904;SDS011;5505;51.450;9.254;2023-03-01T11:38:24;7.33;;;4.70;;
10904;SDS011;5505;51.450;9.254;2023-03-01T11:41:14;6.00;;;4.40;;
10904;SDS011;5505;51.450;9.254;2023-03-01T11:44:03;7.27;;;5.03;;
10904;SDS011;5505;51.450;9.254;2023-03-01T11:47:15;6.03;;;4.77;;
10904;SDS011;5505;51.450;9.254;2023-03-01T11:50:18;7.10;;;4.90;;
10904;SDS011;5505;51.450;9.254;2023-03-01T11:53:21;6.60;;;4.93;;
10904;SDS011;5505;51.450;9.254;2023-03-01T11:56:34;6.43;;;5.03;;
10904;SDS011;5505;51.450;9.254;2023-03-01T11:59:31;5.80;;;4.93;;
10904;SDS011;5505;51.450;9.254;2023-03-01T12:02:40;5.77;;;4.80;;
10904;SDS011;5505;51.450;9.254;2023-03-01T12:05:52;6.20;;;4.50;;
10904;SDS011;5505;51.450;9.254;2023-03-01T12:12:34;6.80;;;4.50;;
10904;SDS011;5505;51.450;9.254;2023-03-01T12:15:33;8.40;;;5.17;;
10904;SDS011;5505;51.450;9.254;2023-03-01T12:18:35;5.93;;;4.60;;
10904;SDS011;5505;51.450;9.254;2023-03-01T12:21:44;7.17;;;5.47;;
10904;SDS011;5505;51.450;9.254;2023-03-01T12:24:53;6.73;;;5.23;;
10904;SDS011;5505;51.450;9.254;2023-03-01T12:28:18;8.13;;;5.33;;
10904;SDS011;5505;51.450;9.254;2023-03-01T12:34:51;6.07;;;5.03;;
10904;SDS011;5505;51.450;9.254;2023-03-01T12:37:54;7.23;;;5.13;;
10904;SDS011;5505;51.450;9.254;2023-03-01T12:40:54;8.70;;;5.50;;
10904;SDS011;5505;51.450;9.254;2023-03-01T12:43:58;6.00;;;4.47;;
10904;SDS011;5505;51.450;9.254;2023-03-01T12:46:59;7.93;;;4.80;;
10904;SDS011;5505;51.450;9.254;2023-03-01T12:49:57;6.47;;;5.00;;
10904;SDS011;5505;51.450;9.254;2023-03-01T12:52:49;4.83;;;4.17;;
10904;SDS011;5505;51.450;9.254;2023-03-01T12:55:39;5.73;;;4.40;;
10904;SDS011;5505;51.450;9.254;2023-03-01T12:58:29;8.93;;;4.23;;
10904;SDS011;5505;51.450;9.254;2023-03-01T13:01:25;7.30;;;3.47;;
10904;SDS011;5505;51.450;9.254;2023-03-01T13:04:28;6.20;;;4.23;;
10904;SDS011;5505;51.450;9.254;2023-03-01T13:07:25;5.10;;;4.07;;
10904;SDS011;5505;51.450;9.254;2023-03-01T13:10:20;4.93;;;4.03;;
10904;SDS011;5505;51.450;9.254;2023-03-01T13:13:18;5.53;;;4.20;;
10904;SDS011;5505;51.450;9.254;2023-03-01T13:16:20;5.90;;;4.47;;
10904;SDS011;5505;51.450;9.254;2023-03-01T13:19:10;6.03;;;4.10;;
10904;SDS011;5505;51.450;9.254;2023-03-01T13:22:01;4.37;;;3.37;;
10904;SDS011;5505;51.450;9.254;2023-03-01T13:25:14;6.67;;;4.43;;
10904;SDS011;5505;51.450;9.254;2023-03-01T13:34:46;5.80;;;4.47;;
10904;SDS011;5505;51.450;9.254;2023-03-01T13:37:37;5.07;;;3.73;;
10904;SDS011;5505;51.450;9.254;2023-03-01T13:43:47;4.67;;;3.20;;
10904;SDS011;5505;51.450;9.254;2023-03-01T13:46:34;5.40;;;3.77;;
10904;SDS011;5505;51.450;9.254;2023-03-01T13:49:23;5.13;;;4.17;;
10904;SDS011;5505;51.450;9.254;2023-03-01T13:55:24;5.77;;;4.50;;
10904;SDS011;5505;51.450;9.254;2023-03-01T13:58:19;5.13;;;4.10;;
10904;SDS011;5505;51.450;9.254;2023-03-01T14:01:20;5.20;;;4.13;;
10904;SDS011;5505;51.450;9.254;2023-03-01T14:04:19;5.77;;;4.53;;
10904;SDS011;5505;51.450;9.254;2023-03-01T14:07:11;5.50;;;4.43;;
10904;SDS011;5505;51.450;9.254;2023-03-01T14:10:02;9.93;;;6.37;;
10904;SDS011;5505;51.450;9.254;2023-03-01T14:12:51;15.27;;;9.20;;
10904;SDS011;5505;51.450;9.254;2023-03-01T14:15:46;7.13;;;4.63;;
10904;SDS011;5505;51.450;9.254;2023-03-01T14:18:46;7.67;;;5.20;;
10904;SDS011;5505;51.450;9.254;2023-03-01T14:21:39;5.37;;;4.40;;
10904;SDS011;5505;51.450;9.254;2023-03-01T14:24:26;5.20;;;4.20;;
10904;SDS011;5505;51.450;9.254;2023-03-01T14:27:13;5.67;;;4.43;;
10904;SDS011;5505;51.450;9.254;2023-03-01T14:30:02;6.33;;;4.23;;
10904;SDS011;5505;51.450;9.254;2023-03-01T14:32:58;5.47;;;3.63;;
10904;SDS011;5505;51.450;9.254;2023-03-01T14:35:53;5.23;;;4.50;;
10904;SDS011;5505;51.450;9.254;2023-03-01T14:38:43;5.23;;;4.60;;
10904;SDS011;5505;51.450;9.254;2023-03-01T14:41:32;5.17;;;4.00;;
10904;SDS011;5505;51.450;9.254;2023-03-01T14:44:22;6.50;;;4.50;;
10904;SDS011;5505;51.450;9.254;2023-03-01T14:47:11;5.57;;;4.07;;
10904;SDS011;5505;51.450;9.254;2023-03-01T14:50:01;5.90;;;4.00;;
10904;SDS011;5505;51.450;9.254;2023-03-01T14:52:53;5.50;;;3.87;;
10904;SDS011;5505;51.450;9.254;2023-03-01T14:55:42;5.87;;;3.30;;
10904;SDS011;5505;51.450;9.254;2023-03-01T14:58:32;4.23;;;3.80;;
10904;SDS011;5505;51.450;9.254;2023-03-01T15:01:19;5.47;;;4.10;;
10904;SDS011;5505;51.450;9.254;2023-03-01T15:04:07;6.00;;;4.30;;
10904;SDS011;5505;51.450;9.254;2023-03-01T15:06:58;4.17;;;3.63;;
10904;SDS011;5505;51.450;9.254;2023-03-01T15:09:51;4.47;;;3.90;;
10904;SDS011;5505;51.450;9.254;2023-03-01T15:12:38;5.10;;;4.40;;
10904;SDS011;5505;51.450;9.254;2023-03-01T15:18:33;6.50;;;3.60;;
10904;SDS011;5505;51.450;9.254;2023-03-01T15:21:22;6.93;;;3.90;;
10904;SDS011;5505;51.450;9.254;2023-03-01T15:24:16;4.83;;;3.80;;
10904;SDS011;5505;51.450;9.254;2023-03-01T15:27:14;4.60;;;3.40;;
10904;SDS011;5505;51.450;9.254;2023-03-01T15:30:03;5.37;;;3.97;;
10904;SDS011;5505;51.450;9.254;2023-03-01T15:39:34;6.53;;;4.47;;
10904;SDS011;5505;51.450;9.254;2023-03-01T15:42:38;4.67;;;3.90;;
10904;SDS011;5505;51.450;9.254;2023-03-01T15:45:26;5.57;;;4.37;;
10904;SDS011;5505;51.450;9.254;2023-03-01T15:48:16;6.50;;;4.20;;
10904;SDS011;5505;51.450;9.254;2023-03-01T15:51:09;5.10;;;4.20;;
10904;SDS011;5505;51.450;9.254;2023-03-01T15:54:00;4.40;;;4.00;;
10904;SDS011;5505;51.450;9.254;2023-03-01T15:56:50;5.20;;;4.37;;
10904;SDS011;5505;51.450;9.254;2023-03-01T15:59:38;4.73;;;3.83;;
10904;SDS011;5505;51.450;9.254;2023-03-01T16:02:25;5.97;;;4.63;;
10904;SDS011;5505;51.450;9.254;2023-03-01T16:05:15;5.77;;;4.20;;
10904;SDS011;5505;51.450;9.254;2023-03-01T16:08:05;6.40;;;4.50;;
10904;SDS011;5505;51.450;9.254;2023-03-01T16:10:53;6.03;;;5.03;;
10904;SDS011;5505;51.450;9.254;2023-03-01T16:13:39;6.47;;;4.60;;
10904;SDS011;5505;51.450;9.254;2023-03-01T16:16:27;6.63;;;4.17;;
10904;SDS011;5505;51.450;9.254;2023-03-01T16:19:14;6.30;;;5.10;;
10904;SDS011;5505;51.450;9.254;2023-03-01T16:22:02;6.07;;;4.60;;
10904;SDS011;5505;51.450;9.254;2023-03-01T16:24:48;6.40;;;4.80;;
10904;SDS011;5505;51.450;9.254;2023-03-01T16:27:35;7.17;;;4.57;;
10904;SDS011;5505;51.450;9.254;2023-03-01T16:30:22;7.43;;;4.67;;
10904;SDS011;5505;51.450;9.254;2023-03-01T16:33:10;11.60;;;8.93;;
10904;SDS011;5505;51.450;9.254;2023-03-01T16:35:57;9.23;;;5.30;;
10904;SDS011;5505;51.450;9.254;2023-03-01T16:38:45;7.43;;;5.17;;
10904;SDS011;5505;51.450;9.254;2023-03-01T16:41:33;5.80;;;4.70;;
10904;SDS011;5505;51.450;9.254;2023-03-01T16:44:20;9.57;;;4.43;;
10904;SDS011;5505;51.450;9.254;2023-03-01T16:47:06;9.13;;;5.93;;
10904;SDS011;5505;51.450;9.254;2023-03-01T16:49:55;7.03;;;4.50;;
10904;SDS011;5505;51.450;9.254;2023-03-01T16:52:42;8.67;;;6.90;;
10904;SDS011;5505;51.450;9.254;2023-03-01T16:55:29;16.07;;;10.77;;
10904;SDS011;5505;51.450;9.254;2023-03-01T16:58:15;12.17;;;9.37;;
10904;SDS011;5505;51.450;9.254;2023-03-01T17:01:06;11.50;;;7.93;;
10904;SDS011;5505;51.450;9.254;2023-03-01T17:03:55;7.63;;;5.13;;
10904;SDS011;5505;51.450;9.254;2023-03-01T17:06:43;5.60;;;4.70;;
10904;SDS011;5505;51.450;9.254;2023-03-01T17:09:33;6.27;;;5.07;;
10904;SDS011;5505;51.450;9.254;2023-03-01T17:12:21;6.93;;;5.13;;
10904;SDS011;5505;51.450;9.254;2023-03-01T17:15:08;8.83;;;4.93;;
10904;SDS011;5505;51.450;9.254;2023-03-01T17:17:56;7.57;;;5.00;;
10904;SDS011;5505;51.450;9.254;2023-03-01T17:20:43;9.27;;;5.60;;
10904;SDS011;5505;51.450;9.254;2023-03-01T17:23:31;8.67;;;5.27;;
10904;SDS011;5505;51.450;9.254;2023-03-01T17:26:19;7.53;;;5.83;;
10904;SDS011;5505;51.450;9.254;2023-03-01T17:29:06;9.63;;;5.80;;
10904;SDS011;5505;51.450;9.254;2023-03-01T17:31:53;9.60;;;5.43;;
10904;SDS011;5505;51.450;9.254;2023-03-01T17:34:40;23.33;;;10.90;;
10904;SDS011;5505;51.450;9.254;2023-03-01T17:37:27;9.17;;;5.20;;
10904;SDS011;5505;51.450;9.254;2023-03-01T17:40:15;9.03;;;6.47;;
10904;SDS011;5505;51.450;9.254;2023-03-01T17:43:03;8.10;;;5.33;;
10904;SDS011;5505;51.450;9.254;2023-03-01T17:45:49;5.03;;;4.30;;
10904;SDS011;5505;51.450;9.254;2023-03-01T17:48:36;6.80;;;4.33;;